createdAt,value
2018-12-23T00:00:14.283Z,17.74
2018-12-23T00:00:54.934Z,17.75
2018-12-23T00:01:35.643Z,17.77
2018-12-23T00:02:16.380Z,17.74
2018-12-23T00:02:57.186Z,17.77
2018-12-23T00:03:37.949Z,17.75
2018-12-23T00:04:18.677Z,17.71
2018-12-23T00:04:59.467Z,17.77
2018-12-23T00:05:40.223Z,17.77
2018-12-23T00:06:21.024Z,17.74
2018-12-23T00:07:01.832Z,17.72
2018-12-23T00:07:42.533Z,17.79
2018-12-23T00:08:23.342Z,17.79
2018-12-23T00:09:04.035Z,17.77
2018-12-23T00:09:44.779Z,17.75
2018-12-23T00:10:25.506Z,17.77
2018-12-23T00:11:06.231Z,17.79
2018-12-23T00:11:47.043Z,17.79
2018-12-23T00:12:27.812Z,17.74
2018-12-23T00:13:08.579Z,17.75
2018-12-23T00:13:49.354Z,17.78
2018-12-23T00:14:30.083Z,17.81
2018-12-23T00:15:10.778Z,17.72
2018-12-23T00:15:51.556Z,17.72
2018-12-23T00:16:32.294Z,17.68
2018-12-23T00:17:13.046Z,17.68
2018-12-23T00:17:53.807Z,17.68
2018-12-23T00:18:34.597Z,17.68
2018-12-23T00:19:15.397Z,17.75
2018-12-23T00:19:56.118Z,17.74
2018-12-23T00:20:36.822Z,17.72
2018-12-23T00:21:17.575Z,17.71
2018-12-23T00:21:58.376Z,17.75
2018-12-23T00:22:39.144Z,17.71
2018-12-23T00:23:19.899Z,17.74
2018-12-23T00:24:00.642Z,17.75
2018-12-23T00:24:41.445Z,17.68
2018-12-23T00:25:22.178Z,17.72
2018-12-23T00:26:02.912Z,17.7
2018-12-23T00:26:43.700Z,17.78
2018-12-23T00:27:24.624Z,17.77
2018-12-23T00:28:05.420Z,17.7
2018-12-23T00:28:46.218Z,17.72
2018-12-23T00:29:26.961Z,17.74
2018-12-23T00:30:07.707Z,17.72
2018-12-23T00:30:48.436Z,17.72
2018-12-23T00:31:29.233Z,17.63
2018-12-23T00:32:10.088Z,17.7
2018-12-23T00:32:50.865Z,17.7
2018-12-23T00:33:31.576Z,17.71
2018-12-23T00:34:12.335Z,17.68
2018-12-23T00:34:53.164Z,17.66
2018-12-23T00:35:33.891Z,17.75
2018-12-23T00:36:14.584Z,17.74
2018-12-23T00:36:55.349Z,17.71
2018-12-23T00:37:36.149Z,17.68
2018-12-23T00:38:16.963Z,17.68
2018-12-23T00:38:57.787Z,17.74
2018-12-23T00:39:38.515Z,17.72
2018-12-23T00:40:19.247Z,17.66
2018-12-23T00:40:59.993Z,17.71
2018-12-23T00:41:40.715Z,17.75
2018-12-23T00:42:21.528Z,17.7
2018-12-23T00:43:02.239Z,17.63
2018-12-23T00:43:42.943Z,17.66
2018-12-23T00:44:23.729Z,17.72
2018-12-23T00:45:04.501Z,17.66
2018-12-23T00:45:45.325Z,17.68
2018-12-23T00:46:26.038Z,17.72
2018-12-23T00:47:06.716Z,17.71
2018-12-23T00:47:47.425Z,17.68
2018-12-23T00:48:28.219Z,17.74
2018-12-23T00:49:08.990Z,17.71
2018-12-23T00:49:49.832Z,17.68
2018-12-23T00:50:30.560Z,17.7
2018-12-23T00:51:11.277Z,17.68
2018-12-23T00:51:52.107Z,17.68
2018-12-23T00:52:32.855Z,17.68
2018-12-23T00:53:13.579Z,17.7
2018-12-23T00:53:54.303Z,17.68
2018-12-23T00:54:35.025Z,17.68
2018-12-23T00:55:15.810Z,17.7
2018-12-23T00:55:56.578Z,17.68
2018-12-23T00:56:37.293Z,17.7
2018-12-23T00:57:19.238Z,17.66
2018-12-23T00:57:58.856Z,17.71
2018-12-23T00:58:39.703Z,17.68
2018-12-23T00:59:20.523Z,17.68
2018-12-23T01:00:01.186Z,17.68
2018-12-23T01:00:42.036Z,17.7
2018-12-23T01:01:22.772Z,17.66
2018-12-23T01:02:03.544Z,17.72
2018-12-23T01:02:44.275Z,17.7
2018-12-23T01:03:25.041Z,17.7
2018-12-23T01:04:05.852Z,17.68
2018-12-23T01:04:46.626Z,17.59
2018-12-23T01:05:28.836Z,17.66
2018-12-23T01:06:08.161Z,17.63
2018-12-23T01:06:48.891Z,17.71
2018-12-23T01:07:29.641Z,17.7
2018-12-23T01:08:10.495Z,17.72
2018-12-23T01:08:51.202Z,17.7
2018-12-23T01:09:31.909Z,17.68
2018-12-23T01:10:12.691Z,17.72
2018-12-23T01:10:53.485Z,17.7
2018-12-23T01:11:34.295Z,17.68
2018-12-23T01:12:15.087Z,17.62
2018-12-23T01:12:55.791Z,17.68
2018-12-23T01:13:36.532Z,17.66
2018-12-23T01:14:17.298Z,17.7
2018-12-23T01:14:58.121Z,17.66
2018-12-23T01:15:38.876Z,17.72
2018-12-23T01:16:19.692Z,17.63
2018-12-23T01:17:00.415Z,17.66
2018-12-23T01:17:41.178Z,17.68
2018-12-23T01:18:22.019Z,17.66
2018-12-23T01:19:02.738Z,17.71
2018-12-23T01:19:43.445Z,17.59
2018-12-23T01:20:24.144Z,17.66
2018-12-23T01:21:04.920Z,17.63
2018-12-23T01:21:45.762Z,17.59
2018-12-23T01:22:26.534Z,17.62
2018-12-23T01:23:07.345Z,17.68
2018-12-23T01:23:48.109Z,17.68
2018-12-23T01:24:28.862Z,17.63
2018-12-23T01:25:09.579Z,17.68
2018-12-23T01:25:50.368Z,17.68
2018-12-23T01:26:31.063Z,17.64
2018-12-23T01:27:11.823Z,17.63
2018-12-23T01:27:52.697Z,17.63
2018-12-23T01:28:33.424Z,17.71
2018-12-23T01:29:14.312Z,17.68
2018-12-23T01:29:55.040Z,17.66
2018-12-23T01:30:35.747Z,17.66
2018-12-23T01:31:16.574Z,17.64
2018-12-23T01:31:57.268Z,17.64
2018-12-23T01:32:37.971Z,17.68
2018-12-23T01:33:18.691Z,17.66
2018-12-23T01:33:59.457Z,17.63
2018-12-23T01:34:40.251Z,17.63
2018-12-23T01:35:21.013Z,17.64
2018-12-23T01:36:01.778Z,17.71
2018-12-23T01:36:42.631Z,17.63
2018-12-23T01:37:23.362Z,17.59
2018-12-23T01:38:04.167Z,17.66
2018-12-23T01:38:44.873Z,17.62
2018-12-23T01:39:25.569Z,17.62
2018-12-23T01:40:06.339Z,17.63
2018-12-23T01:40:47.062Z,17.62
2018-12-23T01:41:27.860Z,17.63
2018-12-23T01:42:08.684Z,17.63
2018-12-23T01:42:49.424Z,17.62
2018-12-23T01:43:30.170Z,17.64
2018-12-23T01:44:10.966Z,17.63
2018-12-23T01:44:51.728Z,17.59
2018-12-23T01:45:32.435Z,17.63
2018-12-23T01:46:13.214Z,17.63
2018-12-23T01:46:53.936Z,17.66
2018-12-23T01:47:34.717Z,17.59
2018-12-23T01:48:15.504Z,17.64
2018-12-23T01:48:56.313Z,17.63
2018-12-23T01:49:37.042Z,17.63
2018-12-23T01:50:17.740Z,17.63
2018-12-23T01:50:58.468Z,17.63
2018-12-23T01:51:39.282Z,17.63
2018-12-23T01:52:20.094Z,17.63
2018-12-23T01:53:00.823Z,17.62
2018-12-23T01:53:41.566Z,17.62
2018-12-23T01:54:22.378Z,17.72
2018-12-23T01:55:03.177Z,17.62
2018-12-23T01:55:43.910Z,17.62
2018-12-23T01:56:24.644Z,17.59
2018-12-23T01:57:05.367Z,17.62
2018-12-23T01:57:46.096Z,17.72
2018-12-23T01:58:26.879Z,17.63
2018-12-23T01:59:07.626Z,17.63
2018-12-23T01:59:48.464Z,17.63
2018-12-23T02:00:29.187Z,17.59
2018-12-23T02:01:09.901Z,17.62
2018-12-23T02:01:50.830Z,17.66
2018-12-23T02:02:31.540Z,17.68
2018-12-23T02:03:12.345Z,17.62
2018-12-23T02:03:53.111Z,17.59
2018-12-23T02:04:33.927Z,17.63
2018-12-23T02:05:14.736Z,17.63
2018-12-23T02:05:55.451Z,17.63
2018-12-23T02:06:36.229Z,17.58
2018-12-23T02:07:17.080Z,17.64
2018-12-23T02:07:57.875Z,17.63
2018-12-23T02:08:38.665Z,17.68
2018-12-23T02:09:19.418Z,17.58
2018-12-23T02:10:00.174Z,17.58
2018-12-23T02:10:41.004Z,17.66
2018-12-23T02:11:21.739Z,17.62
2018-12-23T02:12:02.452Z,17.62
2018-12-23T02:12:43.147Z,17.63
2018-12-23T02:13:23.892Z,17.59
2018-12-23T02:14:04.688Z,17.59
2018-12-23T02:14:45.534Z,17.63
2018-12-23T02:15:26.285Z,17.58
2018-12-23T02:16:07.044Z,17.63
2018-12-23T02:16:47.822Z,17.64
2018-12-23T02:17:28.538Z,17.62
2018-12-23T02:18:09.341Z,17.62
2018-12-23T02:18:50.055Z,17.56
2018-12-23T02:19:30.786Z,17.71
2018-12-23T02:20:11.699Z,17.63
2018-12-23T02:20:52.383Z,17.64
2018-12-23T02:21:33.191Z,17.62
2018-12-23T02:22:13.893Z,17.62
2018-12-23T02:22:54.684Z,17.62
2018-12-23T02:23:35.465Z,17.64
2018-12-23T02:24:16.221Z,17.62
2018-12-23T02:24:56.949Z,17.59
2018-12-23T02:25:37.722Z,17.62
2018-12-23T02:26:18.536Z,17.63
2018-12-23T02:26:59.365Z,17.68
2018-12-23T02:27:40.078Z,17.62
2018-12-23T02:28:20.813Z,17.68
2018-12-23T02:29:01.695Z,17.59
2018-12-23T02:29:42.479Z,17.64
2018-12-23T02:30:23.290Z,17.64
2018-12-23T02:31:04.018Z,17.63
2018-12-23T02:31:44.736Z,17.66
2018-12-23T02:32:25.458Z,17.62
2018-12-23T02:33:06.271Z,17.68
2018-12-23T02:33:47.074Z,17.63
2018-12-23T02:34:27.891Z,17.64
2018-12-23T02:35:08.669Z,17.68
2018-12-23T02:35:55.373Z,17.59
2018-12-23T02:36:30.162Z,17.62
2018-12-23T02:37:10.948Z,17.7
2018-12-23T02:37:51.713Z,17.59
2018-12-23T02:38:32.423Z,17.7
2018-12-23T02:39:13.144Z,17.66
2018-12-23T02:39:53.988Z,17.7
2018-12-23T02:40:34.742Z,17.64
2018-12-23T02:41:15.442Z,17.71
2018-12-23T02:41:56.245Z,17.62
2018-12-23T02:42:37.032Z,17.62
2018-12-23T02:43:17.850Z,17.64
2018-12-23T02:43:58.563Z,17.63
2018-12-23T02:44:39.310Z,17.63
2018-12-23T02:45:20.148Z,17.56
2018-12-23T02:46:00.875Z,17.64
2018-12-23T02:46:41.559Z,17.56
2018-12-23T02:47:22.274Z,17.55
2018-12-23T02:48:03.019Z,17.64
2018-12-23T02:49:58.156Z,17.64
2018-12-23T02:50:38.856Z,17.63
2018-12-23T02:51:19.667Z,17.52
2018-12-23T02:52:00.472Z,17.59
2018-12-23T02:52:41.304Z,17.54
2018-12-23T02:53:22.010Z,17.64
2018-12-23T02:54:02.728Z,17.56
2018-12-23T02:54:43.548Z,17.56
2018-12-23T02:55:24.284Z,17.64
2018-12-23T02:56:04.997Z,17.54
2018-12-23T02:56:45.716Z,17.55
2018-12-23T02:57:26.454Z,17.59
2018-12-23T02:58:07.246Z,17.68
2018-12-23T02:58:47.975Z,17.62
2018-12-23T02:59:28.676Z,17.58
2018-12-23T03:00:09.473Z,17.59
2018-12-23T03:00:50.234Z,17.64
2018-12-23T03:01:31.042Z,17.56
2018-12-23T03:02:11.793Z,17.55
2018-12-23T03:02:52.546Z,17.51
2018-12-23T03:03:33.243Z,17.52
2018-12-23T03:04:13.992Z,17.58
2018-12-23T03:04:54.742Z,17.58
2018-12-23T03:05:35.518Z,17.55
2018-12-23T03:06:16.268Z,17.59
2018-12-23T03:06:56.945Z,17.63
2018-12-23T03:07:37.731Z,17.56
2018-12-23T03:08:18.473Z,17.59
2018-12-23T03:08:59.233Z,17.62
2018-12-23T03:09:39.964Z,17.54
2018-12-23T03:10:20.688Z,17.58
2018-12-23T03:11:01.503Z,17.55
2018-12-23T03:11:42.271Z,17.52
2018-12-23T03:12:22.961Z,17.54
2018-12-23T03:13:03.744Z,17.54
2018-12-23T03:13:44.525Z,17.54
2018-12-23T03:14:25.336Z,17.56
2018-12-23T03:15:06.060Z,17.56
2018-12-23T03:15:46.769Z,17.51
2018-12-23T03:16:27.563Z,17.62
2018-12-23T03:17:08.311Z,17.56
2018-12-23T03:17:49.100Z,17.56
2018-12-23T03:18:29.791Z,17.48
2018-12-23T03:19:10.522Z,17.62
2018-12-23T03:19:51.292Z,17.51
2018-12-23T03:20:32.123Z,17.54
2018-12-23T03:21:12.920Z,17.56
2018-12-23T03:21:53.607Z,17.63
2018-12-23T03:22:34.275Z,17.52
2018-12-23T03:23:15.000Z,17.56
2018-12-23T03:23:55.814Z,17.52
2018-12-23T03:24:36.608Z,17.56
2018-12-23T03:25:17.319Z,17.56
2018-12-23T03:25:58.089Z,17.68
2018-12-23T03:26:38.838Z,17.59
2018-12-23T03:27:19.731Z,17.62
2018-12-23T03:28:00.487Z,17.58
2018-12-23T03:28:41.171Z,17.62
2018-12-23T03:29:21.979Z,17.66
2018-12-23T03:30:02.735Z,17.59
2018-12-23T03:30:43.436Z,17.66
2018-12-23T03:31:24.142Z,17.62
2018-12-23T03:32:04.859Z,17.62
2018-12-23T03:32:45.689Z,17.58
2018-12-23T03:33:26.409Z,17.64
2018-12-23T03:34:07.125Z,17.58
2018-12-23T03:34:47.956Z,17.59
2018-12-23T03:35:28.787Z,17.62
2018-12-23T03:36:14.872Z,17.54
2018-12-23T03:36:50.304Z,17.62
2018-12-23T03:37:31.008Z,17.58
2018-12-23T03:38:11.719Z,17.62
2018-12-23T03:38:52.500Z,17.62
2018-12-23T03:39:33.226Z,17.48
2018-12-23T03:40:14.039Z,17.48
2018-12-23T03:40:54.797Z,17.59
2018-12-23T03:41:35.530Z,17.51
2018-12-23T03:42:16.325Z,17.66
2018-12-23T03:42:57.107Z,17.66
2018-12-23T03:43:37.850Z,17.62
2018-12-23T03:44:18.565Z,17.63
2018-12-23T03:44:59.311Z,17.63
2018-12-23T03:45:40.168Z,17.62
2018-12-23T03:46:20.961Z,17.64
2018-12-23T03:47:01.745Z,17.63
2018-12-23T03:47:42.455Z,17.48
2018-12-23T03:48:23.181Z,17.48
2018-12-23T03:49:03.860Z,17.49
2018-12-23T03:49:44.626Z,17.54
2018-12-23T03:50:25.396Z,17.51
2018-12-23T03:51:06.123Z,17.48
2018-12-23T03:51:46.909Z,17.56
2018-12-23T03:52:27.737Z,17.63
2018-12-23T03:53:08.529Z,17.68
2018-12-23T03:53:49.319Z,17.49
2018-12-23T03:54:30.028Z,17.48
2018-12-23T03:55:10.749Z,17.62
2018-12-23T03:55:51.462Z,17.55
2018-12-23T03:56:32.238Z,17.52
2018-12-23T03:57:13.028Z,17.54
2018-12-23T03:57:53.817Z,17.48
2018-12-23T03:58:34.553Z,17.51
2018-12-23T03:59:15.271Z,17.51
2018-12-23T03:59:56.091Z,17.51
2018-12-23T04:00:36.846Z,17.54
2018-12-23T04:01:17.544Z,17.52
2018-12-23T04:01:58.300Z,17.44
2018-12-23T04:02:38.999Z,17.44
2018-12-23T04:03:19.796Z,17.54
2018-12-23T04:04:00.526Z,17.48
2018-12-23T04:04:41.274Z,17.48
2018-12-23T04:05:22.063Z,17.52
2018-12-23T04:06:02.877Z,17.51
2018-12-23T04:06:43.605Z,17.54
2018-12-23T04:07:24.372Z,17.49
2018-12-23T04:08:05.137Z,17.49
2018-12-23T04:08:45.943Z,17.59
2018-12-23T04:09:26.695Z,17.52
2018-12-23T04:10:07.415Z,17.44
2018-12-23T04:10:48.141Z,17.49
2018-12-23T04:11:28.921Z,17.46
2018-12-23T04:12:09.717Z,17.51
2018-12-23T04:12:50.529Z,17.54
2018-12-23T04:13:31.290Z,17.49
2018-12-23T04:14:12.015Z,17.46
2018-12-23T04:14:52.699Z,17.49
2018-12-23T04:15:33.385Z,17.46
2018-12-23T04:16:14.183Z,17.49
2018-12-23T04:16:55.014Z,17.51
2018-12-23T04:17:35.650Z,17.49
2018-12-23T04:18:16.467Z,17.48
2018-12-23T04:18:57.242Z,17.54
2018-12-23T04:19:38.004Z,17.44
2018-12-23T04:20:18.724Z,17.49
2018-12-23T04:20:59.423Z,17.48
2018-12-23T04:21:40.192Z,17.46
2018-12-23T04:22:20.885Z,17.48
2018-12-23T04:23:01.779Z,17.49
2018-12-23T04:23:42.556Z,17.51
2018-12-23T04:24:23.337Z,17.52
2018-12-23T04:25:04.272Z,17.48
2018-12-23T04:25:45.037Z,17.46
2018-12-23T04:26:25.864Z,17.51
2018-12-23T04:27:06.551Z,17.51
2018-12-23T04:27:47.296Z,17.51
2018-12-23T04:28:28.001Z,17.48
2018-12-23T04:29:08.770Z,17.55
2018-12-23T04:29:49.586Z,17.51
2018-12-23T04:30:30.383Z,17.51
2018-12-23T04:31:11.095Z,17.51
2018-12-23T04:31:51.842Z,17.51
2018-12-23T04:32:32.589Z,17.49
2018-12-23T04:33:13.299Z,17.51
2018-12-23T04:33:54.116Z,17.44
2018-12-23T04:34:34.832Z,17.49
2018-12-23T04:35:15.551Z,17.52
2018-12-23T04:35:56.370Z,17.46
2018-12-23T04:36:37.151Z,17.48
2018-12-23T04:37:18.014Z,17.49
2018-12-23T04:37:58.709Z,17.46
2018-12-23T04:38:39.464Z,17.46
2018-12-23T04:39:20.293Z,17.48
2018-12-23T04:40:00.955Z,17.48
2018-12-23T04:40:41.665Z,17.48
2018-12-23T04:41:22.353Z,17.49
2018-12-23T04:42:03.089Z,17.49
2018-12-23T04:42:43.929Z,17.48
2018-12-23T04:43:24.650Z,17.44
2018-12-23T04:44:05.416Z,17.48
2018-12-23T04:44:46.207Z,17.51
2018-12-23T04:45:26.970Z,17.48
2018-12-23T04:46:07.766Z,17.48
2018-12-23T04:46:48.495Z,17.49
2018-12-23T04:47:29.228Z,17.49
2018-12-23T04:48:09.923Z,17.48
2018-12-23T04:48:50.745Z,17.46
2018-12-23T04:49:31.598Z,17.51
2018-12-23T04:50:12.384Z,17.49
2018-12-23T04:50:53.097Z,17.48
2018-12-23T04:51:33.856Z,17.51
2018-12-23T04:52:14.724Z,17.46
2018-12-23T04:52:55.440Z,17.48
2018-12-23T04:53:36.120Z,17.48
2018-12-23T04:54:16.865Z,17.46
2018-12-23T04:54:57.597Z,17.49
2018-12-23T04:55:38.454Z,17.48
2018-12-23T04:56:19.186Z,17.46
2018-12-23T04:56:59.964Z,17.49
2018-12-23T04:57:40.663Z,17.48
2018-12-23T04:58:21.377Z,17.56
2018-12-23T04:59:02.123Z,17.56
2018-12-23T04:59:42.908Z,17.55
2018-12-23T05:00:23.618Z,17.43
2018-12-23T05:01:04.370Z,17.49
2018-12-23T05:01:45.135Z,17.54
2018-12-23T05:02:25.951Z,17.46
2018-12-23T05:03:06.921Z,17.51
2018-12-23T05:03:47.643Z,17.48
2018-12-23T05:04:28.388Z,17.41
2018-12-23T05:05:09.091Z,17.48
2018-12-23T05:05:49.794Z,17.48
2018-12-23T05:06:30.610Z,17.54
2018-12-23T05:07:11.378Z,17.54
2018-12-23T05:07:52.159Z,17.44
2018-12-23T05:08:32.897Z,17.44
2018-12-23T05:09:13.666Z,17.51
2018-12-23T05:09:54.497Z,17.54
2018-12-23T05:10:35.240Z,17.48
2018-12-23T05:11:16.030Z,17.46
2018-12-23T05:11:56.759Z,17.4
2018-12-23T05:12:37.511Z,17.54
2018-12-23T05:13:18.333Z,17.54
2018-12-23T05:13:59.080Z,17.43
2018-12-23T05:14:39.857Z,17.44
2018-12-23T05:15:20.694Z,17.43
2018-12-23T05:16:01.492Z,17.44
2018-12-23T05:16:42.238Z,17.54
2018-12-23T05:17:22.960Z,17.44
2018-12-23T05:18:03.753Z,17.46
2018-12-23T05:18:44.521Z,17.46
2018-12-23T05:19:25.210Z,17.51
2018-12-23T05:20:05.903Z,17.43
2018-12-23T05:20:46.611Z,17.48
2018-12-23T05:21:27.401Z,17.4
2018-12-23T05:22:08.213Z,17.51
2018-12-23T05:22:48.982Z,17.46
2018-12-23T05:23:29.686Z,17.43
2018-12-23T05:24:10.433Z,17.55
2018-12-23T05:24:51.146Z,17.55
2018-12-23T05:25:31.913Z,17.43
2018-12-23T05:26:12.701Z,17.51
2018-12-23T05:26:53.421Z,17.51
2018-12-23T05:27:34.130Z,17.41
2018-12-23T05:28:14.937Z,17.41
2018-12-23T05:28:55.679Z,17.46
2018-12-23T05:29:36.590Z,17.52
2018-12-23T05:30:17.165Z,17.48
2018-12-23T05:30:57.938Z,17.51
2018-12-23T05:31:38.731Z,17.38
2018-12-23T05:32:19.445Z,17.4
2018-12-23T05:33:00.181Z,17.38
2018-12-23T05:33:40.884Z,17.51
2018-12-23T05:34:21.658Z,17.37
2018-12-23T05:35:02.464Z,17.4
2018-12-23T05:35:43.198Z,17.54
2018-12-23T05:36:23.930Z,17.49
2018-12-23T05:37:04.732Z,17.43
2018-12-23T05:37:45.477Z,17.4
2018-12-23T05:38:26.245Z,17.44
2018-12-23T05:39:06.990Z,17.49
2018-12-23T05:39:47.680Z,17.38
2018-12-23T05:40:28.446Z,17.58
2018-12-23T05:41:09.201Z,17.43
2018-12-23T05:41:50.021Z,17.43
2018-12-23T05:42:30.825Z,17.4
2018-12-23T05:43:11.529Z,17.43
2018-12-23T05:43:52.301Z,17.43
2018-12-23T05:44:33.065Z,17.49
2018-12-23T05:45:13.812Z,17.41
2018-12-23T05:45:54.540Z,17.58
2018-12-23T05:46:35.244Z,17.43
2018-12-23T05:47:15.966Z,17.38
2018-12-23T05:47:56.776Z,17.44
2018-12-23T05:48:37.478Z,17.54
2018-12-23T05:49:18.219Z,17.46
2018-12-23T05:49:59.056Z,17.43
2018-12-23T05:50:39.844Z,17.46
2018-12-23T05:51:20.623Z,17.4
2018-12-23T05:52:01.358Z,17.38
2018-12-23T05:52:42.094Z,17.43
2018-12-23T05:53:22.906Z,17.44
2018-12-23T05:54:03.613Z,17.36
2018-12-23T05:54:44.287Z,17.38
2018-12-23T05:55:25.012Z,17.48
2018-12-23T05:56:05.786Z,17.44
2018-12-23T05:56:46.595Z,17.46
2018-12-23T05:57:27.428Z,17.41
2018-12-23T05:58:08.163Z,17.4
2018-12-23T05:58:48.838Z,17.37
2018-12-23T05:59:29.540Z,17.46
2018-12-23T06:00:10.308Z,17.4
2018-12-23T06:00:51.144Z,17.43
2018-12-23T06:01:31.889Z,17.46
2018-12-23T06:02:12.663Z,17.38
2018-12-23T06:02:53.527Z,17.38
2018-12-23T06:03:34.382Z,17.41
2018-12-23T06:04:15.236Z,17.4
2018-12-23T06:04:56.035Z,17.41
2018-12-23T06:05:36.791Z,17.4
2018-12-23T06:06:17.505Z,17.37
2018-12-23T06:07:00.987Z,17.43
2018-12-23T06:07:39.061Z,17.4
2018-12-23T06:08:19.834Z,17.41
2018-12-23T06:09:00.578Z,17.52
2018-12-23T06:09:41.265Z,17.4
2018-12-23T06:10:22.078Z,17.41
2018-12-23T06:11:02.861Z,17.44
2018-12-23T06:11:43.624Z,17.51
2018-12-23T06:12:24.365Z,17.4
2018-12-23T06:13:05.064Z,17.37
2018-12-23T06:13:45.820Z,17.46
2018-12-23T06:14:26.617Z,17.43
2018-12-23T06:15:07.422Z,17.4
2018-12-23T06:15:48.144Z,17.37
2018-12-23T06:16:28.825Z,17.4
2018-12-23T06:17:09.546Z,17.4
2018-12-23T06:17:50.277Z,17.41
2018-12-23T06:18:31.100Z,17.4
2018-12-23T06:19:11.880Z,17.38
2018-12-23T06:19:52.695Z,17.41
2018-12-23T06:20:33.534Z,17.43
2018-12-23T06:21:14.300Z,17.4
2018-12-23T06:21:55.126Z,17.43
2018-12-23T06:22:35.898Z,17.56
2018-12-23T06:23:16.653Z,17.37
2018-12-23T06:23:57.478Z,17.41
2018-12-23T06:24:38.193Z,17.38
2018-12-23T06:25:18.941Z,17.41
2018-12-23T06:25:59.661Z,17.4
2018-12-23T06:26:40.508Z,17.38
2018-12-23T06:27:21.312Z,17.36
2018-12-23T06:28:01.991Z,17.38
2018-12-23T06:28:42.788Z,17.43
2018-12-23T06:29:23.585Z,17.34
2018-12-23T06:30:04.320Z,17.41
2018-12-23T06:30:45.117Z,17.4
2018-12-23T06:31:25.835Z,17.38
2018-12-23T06:32:06.602Z,17.41
2018-12-23T06:32:47.343Z,17.37
2018-12-23T06:33:28.183Z,17.43
2018-12-23T06:34:09.000Z,17.37
2018-12-23T06:34:49.786Z,17.34
2018-12-23T06:35:30.518Z,17.43
2018-12-23T06:36:11.281Z,17.46
2018-12-23T06:36:52.115Z,17.43
2018-12-23T06:37:32.847Z,17.4
2018-12-23T06:38:13.535Z,17.4
2018-12-23T06:38:54.279Z,17.48
2018-12-23T06:39:35.074Z,17.4
2018-12-23T06:40:15.916Z,17.37
2018-12-23T06:40:56.734Z,17.37
2018-12-23T06:41:37.487Z,17.43
2018-12-23T06:42:18.212Z,17.46
2018-12-23T06:42:58.924Z,17.46
2018-12-23T06:43:39.699Z,17.38
2018-12-23T06:44:20.496Z,17.4
2018-12-23T06:45:01.234Z,17.48
2018-12-23T06:45:41.982Z,17.44
2018-12-23T06:46:22.820Z,17.4
2018-12-23T06:47:03.637Z,17.43
2018-12-23T06:47:44.439Z,17.41
2018-12-23T06:48:25.169Z,17.41
2018-12-23T06:49:05.895Z,17.48
2018-12-23T06:49:46.666Z,17.38
2018-12-23T06:50:27.521Z,17.43
2018-12-23T06:51:08.335Z,17.4
2018-12-23T06:51:49.111Z,17.49
2018-12-23T06:52:29.869Z,17.37
2018-12-23T06:53:10.658Z,17.4
2018-12-23T06:53:51.451Z,17.37
2018-12-23T06:54:32.233Z,17.37
2018-12-23T06:55:12.973Z,17.37
2018-12-23T06:55:53.686Z,17.48
2018-12-23T06:56:34.457Z,17.43
2018-12-23T06:57:15.254Z,17.38
2018-12-23T06:57:55.994Z,17.41
2018-12-23T06:58:36.729Z,17.44
2018-12-23T06:59:17.541Z,17.43
2018-12-23T06:59:58.378Z,17.37
2018-12-23T07:00:39.146Z,17.41
2018-12-23T07:01:19.905Z,17.43
2018-12-23T07:02:00.669Z,17.38
2018-12-23T07:02:41.465Z,17.43
2018-12-23T07:03:22.170Z,17.43
2018-12-23T07:04:02.877Z,17.38
2018-12-23T07:04:43.590Z,17.43
2018-12-23T07:05:24.417Z,17.43
2018-12-23T07:06:05.242Z,17.43
2018-12-23T07:06:46.043Z,17.36
2018-12-23T07:07:26.814Z,17.38
2018-12-23T07:08:07.538Z,17.38
2018-12-23T07:08:48.249Z,17.41
2018-12-23T07:09:28.971Z,17.4
2018-12-23T07:10:09.791Z,17.48
2018-12-23T07:10:50.534Z,17.4
2018-12-23T07:11:31.211Z,17.38
2018-12-23T07:12:12.010Z,17.44
2018-12-23T07:12:52.820Z,17.46
2018-12-23T07:13:33.614Z,17.38
2018-12-23T07:14:14.359Z,17.37
2018-12-23T07:14:55.069Z,17.43
2018-12-23T07:15:35.817Z,17.44
2018-12-23T07:16:16.663Z,17.38
2018-12-23T07:16:57.453Z,17.38
2018-12-23T07:17:38.238Z,17.38
2018-12-23T07:18:19.006Z,17.37
2018-12-23T07:18:59.736Z,17.4
2018-12-23T07:19:40.503Z,17.41
2018-12-23T07:20:21.310Z,17.37
2018-12-23T07:21:02.030Z,17.46
2018-12-23T07:21:42.739Z,17.44
2018-12-23T07:22:23.460Z,17.56
2018-12-23T07:23:04.277Z,17.46
2018-12-23T07:23:45.069Z,17.4
2018-12-23T07:24:25.844Z,17.44
2018-12-23T07:25:06.585Z,17.44
2018-12-23T07:25:47.307Z,17.37
2018-12-23T07:26:28.058Z,17.4
2018-12-23T07:27:08.844Z,17.43
2018-12-23T07:27:49.610Z,17.4
2018-12-23T07:28:30.318Z,17.51
2018-12-23T07:29:11.063Z,17.46
2018-12-23T07:29:51.824Z,17.4
2018-12-23T07:30:32.608Z,17.41
2018-12-23T07:31:13.392Z,17.38
2018-12-23T07:31:54.090Z,17.44
2018-12-23T07:32:34.901Z,17.4
2018-12-23T07:33:15.726Z,17.41
2018-12-23T07:33:56.368Z,17.4
2018-12-23T07:34:37.106Z,17.43
2018-12-23T07:35:17.813Z,17.49
2018-12-23T07:35:58.594Z,17.56
2018-12-23T07:36:39.337Z,17.58
2018-12-23T07:37:27.372Z,17.44
2018-12-23T07:38:00.898Z,17.41
2018-12-23T07:38:41.670Z,17.38
2018-12-23T07:39:22.526Z,17.4
2018-12-23T07:40:03.302Z,17.48
2018-12-23T07:40:44.059Z,17.37
2018-12-23T07:41:24.816Z,17.41
2018-12-23T07:42:06.259Z,17.51
2018-12-23T07:42:47.098Z,17.43
2018-12-23T07:43:27.887Z,17.52
2018-12-23T07:44:08.657Z,17.44
2018-12-23T07:44:49.406Z,17.44
2018-12-23T07:45:30.208Z,17.41
2018-12-23T07:46:10.913Z,17.43
2018-12-23T07:46:51.674Z,17.46
2018-12-23T07:47:32.415Z,17.51
2018-12-23T07:48:13.150Z,17.48
2018-12-23T07:48:53.952Z,17.44
2018-12-23T07:49:34.733Z,17.52
2018-12-23T07:50:15.634Z,17.37
2018-12-23T07:50:56.263Z,17.38
2018-12-23T07:51:37.042Z,17.54
2018-12-23T07:52:17.847Z,17.46
2018-12-23T07:52:58.625Z,17.41
2018-12-23T07:53:39.348Z,17.52
2018-12-23T07:54:20.099Z,17.46
2018-12-23T07:55:00.919Z,17.54
2018-12-23T07:55:41.671Z,17.4
2018-12-23T07:56:22.381Z,17.4
2018-12-23T07:57:03.116Z,17.51
2018-12-23T07:57:43.922Z,17.49
2018-12-23T07:58:24.758Z,17.41
2018-12-23T07:59:05.589Z,17.41
2018-12-23T07:59:46.373Z,17.38
2018-12-23T08:00:27.119Z,17.49
2018-12-23T08:01:07.836Z,17.51
2018-12-23T08:01:48.574Z,17.48
2018-12-23T08:02:29.334Z,17.55
2018-12-23T08:03:10.055Z,17.4
2018-12-23T08:03:50.796Z,17.41
2018-12-23T08:04:31.582Z,17.49
2018-12-23T08:05:12.379Z,17.49
2018-12-23T08:05:53.153Z,17.44
2018-12-23T08:06:33.860Z,17.4
2018-12-23T08:07:14.574Z,17.51
2018-12-23T08:07:55.402Z,17.46
2018-12-23T08:08:36.145Z,17.46
2018-12-23T08:09:16.870Z,17.54
2018-12-23T08:09:57.576Z,17.46
2018-12-23T08:10:38.289Z,17.38
2018-12-23T08:11:19.085Z,17.49
2018-12-23T08:11:59.847Z,17.52
2018-12-23T08:12:40.643Z,17.46
2018-12-23T08:13:21.480Z,17.49
2018-12-23T08:14:02.268Z,17.4
2018-12-23T08:14:43.027Z,17.44
2018-12-23T08:15:23.746Z,17.51
2018-12-23T08:16:04.497Z,17.43
2018-12-23T08:16:45.253Z,17.38
2018-12-23T08:17:26.060Z,17.52
2018-12-23T08:18:06.859Z,17.46
2018-12-23T08:18:47.712Z,17.48
2018-12-23T08:19:28.477Z,17.49
2018-12-23T08:20:09.196Z,17.52
2018-12-23T08:20:50.033Z,17.54
2018-12-23T08:21:30.807Z,17.41
2018-12-23T08:22:11.534Z,17.54
2018-12-23T08:22:52.269Z,17.52
2018-12-23T08:23:32.989Z,17.46
2018-12-23T08:24:13.832Z,17.52
2018-12-23T08:24:54.626Z,17.48
2018-12-23T08:25:35.951Z,17.41
2018-12-23T08:26:16.106Z,17.54
2018-12-23T08:26:56.822Z,17.55
2018-12-23T08:27:37.534Z,17.54
2018-12-23T08:28:18.333Z,17.49
2018-12-23T08:28:59.116Z,17.48
2018-12-23T08:29:39.874Z,17.49
2018-12-23T08:30:20.630Z,17.54
2018-12-23T08:31:01.415Z,17.48
2018-12-23T08:31:42.224Z,17.46
2018-12-23T08:32:22.976Z,17.44
2018-12-23T08:33:03.680Z,17.56
2018-12-23T08:33:44.429Z,17.55
2018-12-23T08:34:25.314Z,17.48
2018-12-23T08:35:06.055Z,17.51
2018-12-23T08:35:47.065Z,17.48
2018-12-23T08:36:27.907Z,17.51
2018-12-23T08:37:08.700Z,17.48
2018-12-23T08:37:49.435Z,17.51
2018-12-23T08:38:30.256Z,17.44
2018-12-23T08:39:10.986Z,17.48
2018-12-23T08:39:51.773Z,17.54
2018-12-23T08:40:32.474Z,17.46
2018-12-23T08:41:13.266Z,17.48
2018-12-23T08:41:54.069Z,17.55
2018-12-23T08:42:34.827Z,17.49
2018-12-23T08:43:15.581Z,17.48
2018-12-23T08:43:56.415Z,17.48
2018-12-23T08:44:37.236Z,17.49
2018-12-23T08:45:17.940Z,17.54
2018-12-23T08:45:58.688Z,17.56
2018-12-23T08:46:39.528Z,17.49
2018-12-23T08:47:20.331Z,17.52